sensor_id;sensor_type;location;lat;lon;timestamp;pressure;altitude;pressure_sealevel;temperature
37536;BMP180;23379;51.554;6.736;2022-09-01T00:02:23;101569.00;;;18.30
37536;BMP180;23379;51.554;6.736;2022-09-01T00:04:51;101561.00;;;18.40
37536;BMP180;23379;51.554;6.736;2022-09-01T00:07:24;101574.00;;;18.00
37536;BMP180;23379;51.554;6.736;2022-09-01T00:09:49;101580.00;;;17.80
37536;BMP180;23379;51.554;6.736;2022-09-01T00:12:16;101553.00;;;17.70
37536;BMP180;23379;51.554;6.736;2022-09-01T00:14:42;101571.00;;;17.90
37536;BMP180;23379;51.554;6.736;2022-09-01T00:17:09;101536.00;;;17.80
37536;BMP180;23379;51.554;6.736;2022-09-01T00:19:35;101511.00;;;17.80
37536;BMP180;23379;51.554;6.736;2022-09-01T00:22:01;101509.00;;;17.80
37536;BMP180;23379;51.554;6.736;2022-09-01T00:24:27;101538.00;;;17.70
37536;BMP180;23379;51.554;6.736;2022-09-01T00:26:54;101583.00;;;17.80
37536;BMP180;23379;51.554;6.736;2022-09-01T00:29:20;101551.00;;;17.80
37536;BMP180;23379;51.554;6.736;2022-09-01T00:31:46;101561.00;;;17.50
37536;BMP180;23379;51.554;6.736;2022-09-01T00:34:14;101554.00;;;17.50
37536;BMP180;23379;51.554;6.736;2022-09-01T00:36:40;101556.00;;;17.60
37536;BMP180;23379;51.554;6.736;2022-09-01T00:39:05;101513.00;;;17.40
37536;BMP180;23379;51.554;6.736;2022-09-01T00:41:33;101568.00;;;17.60
37536;BMP180;23379;51.554;6.736;2022-09-01T00:44:01;101566.00;;;17.40
37536;BMP180;23379;51.554;6.736;2022-09-01T00:46:39;101572.00;;;17.40
37536;BMP180;23379;51.554;6.736;2022-09-01T00:49:07;101575.00;;;17.50
37536;BMP180;23379;51.554;6.736;2022-09-01T00:51:38;101554.00;;;17.40
37536;BMP180;23379;51.554;6.736;2022-09-01T00:54:06;101563.00;;;17.10
37536;BMP180;23379;51.554;6.736;2022-09-01T00:56:33;101549.00;;;17.30
37536;BMP180;23379;51.554;6.736;2022-09-01T00:59:02;101547.00;;;17.20
37536;BMP180;23379;51.554;6.736;2022-09-01T01:01:30;101555.00;;;17.20
37536;BMP180;23379;51.554;6.736;2022-09-01T01:03:55;101538.00;;;17.20
37536;BMP180;23379;51.554;6.736;2022-09-01T01:06:22;101558.00;;;17.10
37536;BMP180;23379;51.554;6.736;2022-09-01T01:08:52;101525.00;;;17.20
37536;BMP180;23379;51.554;6.736;2022-09-01T01:11:28;101559.00;;;17.30
37536;BMP180;23379;51.554;6.736;2022-09-01T01:14:05;101542.00;;;17.40
37536;BMP180;23379;51.554;6.736;2022-09-01T01:16:37;101553.00;;;17.40
37536;BMP180;23379;51.554;6.736;2022-09-01T01:19:05;101558.00;;;17.30
37536;BMP180;23379;51.554;6.736;2022-09-01T01:21:52;101535.00;;;17.10
37536;BMP180;23379;51.554;6.736;2022-09-01T01:24:36;101547.00;;;16.80
37536;BMP180;23379;51.554;6.736;2022-09-01T01:27:02;101543.00;;;16.90
37536;BMP180;23379;51.554;6.736;2022-09-01T01:29:34;101561.00;;;17.10
37536;BMP180;23379;51.554;6.736;2022-09-01T01:32:04;101533.00;;;17.30
37536;BMP180;23379;51.554;6.736;2022-09-01T01:34:36;101558.00;;;17.10
37536;BMP180;23379;51.554;6.736;2022-09-01T01:37:03;101531.00;;;17.10
37536;BMP180;23379;51.554;6.736;2022-09-01T01:39:29;101522.00;;;17.00
37536;BMP180;23379;51.554;6.736;2022-09-01T01:41:55;101531.00;;;17.00
37536;BMP180;23379;51.554;6.736;2022-09-01T01:44:24;101530.00;;;17.10
37536;BMP180;23379;51.554;6.736;2022-09-01T01:46:53;101538.00;;;16.90
37536;BMP180;23379;51.554;6.736;2022-09-01T01:49:22;101502.00;;;16.90
37536;BMP180;23379;51.554;6.736;2022-09-01T01:51:49;101559.00;;;16.80
37536;BMP180;23379;51.554;6.736;2022-09-01T01:54:20;101573.00;;;16.70
37536;BMP180;23379;51.554;6.736;2022-09-01T01:56:47;101559.00;;;16.60
37536;BMP180;23379;51.554;6.736;2022-09-01T01:59:12;101552.00;;;16.80
37536;BMP180;23379;51.554;6.736;2022-09-01T02:01:40;101578.00;;;16.70
37536;BMP180;23379;51.554;6.736;2022-09-01T02:04:07;101581.00;;;16.90
37536;BMP180;23379;51.554;6.736;2022-09-01T02:06:34;101560.00;;;16.80
37536;BMP180;23379;51.554;6.736;2022-09-01T02:09:00;101560.00;;;16.70
37536;BMP180;23379;51.554;6.736;2022-09-01T02:11:28;101577.00;;;16.70
37536;BMP180;23379;51.554;6.736;2022-09-01T02:13:55;101576.00;;;16.80
37536;BMP180;23379;51.554;6.736;2022-09-01T02:16:23;101526.00;;;17.00
37536;BMP180;23379;51.554;6.736;2022-09-01T02:18:49;101572.00;;;16.80
37536;BMP180;23379;51.554;6.736;2022-09-01T02:21:17;101558.00;;;17.00
37536;BMP180;23379;51.554;6.736;2022-09-01T02:23:50;101571.00;;;17.00
37536;BMP180;23379;51.554;6.736;2022-09-01T02:26:21;101524.00;;;17.00
37536;BMP180;23379;51.554;6.736;2022-09-01T02:28:47;101548.00;;;17.00
37536;BMP180;23379;51.554;6.736;2022-09-01T02:31:13;101555.00;;;16.70
37536;BMP180;23379;51.554;6.736;2022-09-01T02:33:41;101536.00;;;16.60
37536;BMP180;23379;51.554;6.736;2022-09-01T02:36:14;101558.00;;;16.70
37536;BMP180;23379;51.554;6.736;2022-09-01T02:38:41;101519.00;;;16.80
37536;BMP180;23379;51.554;6.736;2022-09-01T02:41:12;101544.00;;;16.40
37536;BMP180;23379;51.554;6.736;2022-09-01T02:43:39;101535.00;;;16.50
37536;BMP180;23379;51.554;6.736;2022-09-01T02:46:05;101559.00;;;16.20
37536;BMP180;23379;51.554;6.736;2022-09-01T02:48:33;101569.00;;;16.30
37536;BMP180;23379;51.554;6.736;2022-09-01T02:51:05;101528.00;;;16.50
37536;BMP180;23379;51.554;6.736;2022-09-01T02:53:32;101540.00;;;16.50
37536;BMP180;23379;51.554;6.736;2022-09-01T02:56:02;101568.00;;;16.20
37536;BMP180;23379;51.554;6.736;2022-09-01T02:58:29;101538.00;;;16.10
37536;BMP180;23379;51.554;6.736;2022-09-01T03:00:57;101565.00;;;16.10
37536;BMP180;23379;51.554;6.736;2022-09-01T03:03:23;101562.00;;;15.90
37536;BMP180;23379;51.554;6.736;2022-09-01T03:05:52;101570.00;;;15.90
37536;BMP180;23379;51.554;6.736;2022-09-01T03:08:23;101563.00;;;16.10
37536;BMP180;23379;51.554;6.736;2022-09-01T03:10:49;101576.00;;;16.30
37536;BMP180;23379;51.554;6.736;2022-09-01T03:13:20;101572.00;;;16.10
37536;BMP180;23379;51.554;6.736;2022-09-01T03:15:46;101544.00;;;16.50
37536;BMP180;23379;51.554;6.736;2022-09-01T03:18:13;101579.00;;;16.60
37536;BMP180;23379;51.554;6.736;2022-09-01T03:20:41;101572.00;;;16.30
37536;BMP180;23379;51.554;6.736;2022-09-01T03:23:10;101546.00;;;16.30
37536;BMP180;23379;51.554;6.736;2022-09-01T03:25:39;101573.00;;;16.20
37536;BMP180;23379;51.554;6.736;2022-09-01T03:28:05;101562.00;;;16.20
37536;BMP180;23379;51.554;6.736;2022-09-01T03:30:33;101518.00;;;16.10
37536;BMP180;23379;51.554;6.736;2022-09-01T03:33:00;101582.00;;;16.20
37536;BMP180;23379;51.554;6.736;2022-09-01T03:35:27;101577.00;;;16.30
37536;BMP180;23379;51.554;6.736;2022-09-01T03:37:54;101566.00;;;16.10
37536;BMP180;23379;51.554;6.736;2022-09-01T03:40:24;101577.00;;;16.10
37536;BMP180;23379;51.554;6.736;2022-09-01T03:42:52;101564.00;;;16.20
37536;BMP180;23379;51.554;6.736;2022-09-01T03:45:18;101559.00;;;16.00
37536;BMP180;23379;51.554;6.736;2022-09-01T03:47:45;101566.00;;;15.80
37536;BMP180;23379;51.554;6.736;2022-09-01T03:50:14;101576.00;;;16.00
37536;BMP180;23379;51.554;6.736;2022-09-01T03:52:56;101567.00;;;15.70
37536;BMP180;23379;51.554;6.736;2022-09-01T03:55:26;101565.00;;;16.00
37536;BMP180;23379;51.554;6.736;2022-09-01T03:57:54;101549.00;;;16.00
37536;BMP180;23379;51.554;6.736;2022-09-01T04:00:22;101562.00;;;15.90
37536;BMP180;23379;51.554;6.736;2022-09-01T04:02:50;101548.00;;;15.50
37536;BMP180;23379;51.554;6.736;2022-09-01T04:05:18;101551.00;;;15.70
37536;BMP180;23379;51.554;6.736;2022-09-01T04:07:47;101532.00;;;15.80
37536;BMP180;23379;51.554;6.736;2022-09-01T04:10:13;101524.00;;;15.80
37536;BMP180;23379;51.554;6.736;2022-09-01T04:12:39;101567.00;;;15.70
37536;BMP180;23379;51.554;6.736;2022-09-01T04:15:05;101559.00;;;15.70
37536;BMP180;23379;51.554;6.736;2022-09-01T04:17:32;101561.00;;;15.80
37536;BMP180;23379;51.554;6.736;2022-09-01T04:20:16;101541.00;;;15.60
37536;BMP180;23379;51.554;6.736;2022-09-01T04:22:48;101520.00;;;15.50
37536;BMP180;23379;51.554;6.736;2022-09-01T04:25:15;101550.00;;;15.40
37536;BMP180;23379;51.554;6.736;2022-09-01T04:27:41;101542.00;;;15.70
37536;BMP180;23379;51.554;6.736;2022-09-01T04:30:09;101561.00;;;15.50
37536;BMP180;23379;51.554;6.736;2022-09-01T04:32:38;101562.00;;;15.30
37536;BMP180;23379;51.554;6.736;2022-09-01T04:35:05;101561.00;;;15.50
37536;BMP180;23379;51.554;6.736;2022-09-01T04:37:31;101530.00;;;15.30
37536;BMP180;23379;51.554;6.736;2022-09-01T04:40:01;101513.00;;;15.30
37536;BMP180;23379;51.554;6.736;2022-09-01T04:42:29;101561.00;;;15.00
37536;BMP180;23379;51.554;6.736;2022-09-01T04:44:57;101557.00;;;15.00
37536;BMP180;23379;51.554;6.736;2022-09-01T04:47:24;101547.00;;;15.20
37536;BMP180;23379;51.554;6.736;2022-09-01T04:49:58;101542.00;;;15.10
37536;BMP180;23379;51.554;6.736;2022-09-01T04:52:26;101565.00;;;15.00
37536;BMP180;23379;51.554;6.736;2022-09-01T04:54:52;101555.00;;;15.00
37536;BMP180;23379;51.554;6.736;2022-09-01T04:57:19;101513.00;;;14.90
37536;BMP180;23379;51.554;6.736;2022-09-01T04:59:44;101551.00;;;15.10
37536;BMP180;23379;51.554;6.736;2022-09-01T05:02:11;101555.00;;;14.80
37536;BMP180;23379;51.554;6.736;2022-09-01T05:04:36;101537.00;;;14.90
37536;BMP180;23379;51.554;6.736;2022-09-01T05:07:03;101569.00;;;14.70
37536;BMP180;23379;51.554;6.736;2022-09-01T05:09:31;101567.00;;;14.70
37536;BMP180;23379;51.554;6.736;2022-09-01T05:12:02;101533.00;;;14.70
37536;BMP180;23379;51.554;6.736;2022-09-01T05:14:40;101550.00;;;14.80
37536;BMP180;23379;51.554;6.736;2022-09-01T05:17:10;101561.00;;;14.80
37536;BMP180;23379;51.554;6.736;2022-09-01T05:19:41;101569.00;;;14.80
37536;BMP180;23379;51.554;6.736;2022-09-01T05:22:08;101555.00;;;15.00
37536;BMP180;23379;51.554;6.736;2022-09-01T05:24:35;101549.00;;;14.80
37536;BMP180;23379;51.554;6.736;2022-09-01T05:27:02;101575.00;;;15.10
37536;BMP180;23379;51.554;6.736;2022-09-01T05:29:28;101554.00;;;15.10
37536;BMP180;23379;51.554;6.736;2022-09-01T05:31:54;101554.00;;;15.10
37536;BMP180;23379;51.554;6.736;2022-09-01T05:34:21;101538.00;;;15.20
37536;BMP180;23379;51.554;6.736;2022-09-01T05:36:52;101588.00;;;15.10
37536;BMP180;23379;51.554;6.736;2022-09-01T05:39:18;101522.00;;;15.50
37536;BMP180;23379;51.554;6.736;2022-09-01T05:41:45;101556.00;;;15.20
37536;BMP180;23379;51.554;6.736;2022-09-01T05:44:13;101573.00;;;15.30
37536;BMP180;23379;51.554;6.736;2022-09-01T05:46:40;101583.00;;;15.30
37536;BMP180;23379;51.554;6.736;2022-09-01T05:49:08;101578.00;;;15.50
37536;BMP180;23379;51.554;6.736;2022-09-01T05:51:39;101587.00;;;15.50
37536;BMP180;23379;51.554;6.736;2022-09-01T05:54:05;101560.00;;;16.60
37536;BMP180;23379;51.554;6.736;2022-09-01T05:56:34;101535.00;;;16.50
37536;BMP180;23379;51.554;6.736;2022-09-01T05:59:03;101535.00;;;16.50
37536;BMP180;23379;51.554;6.736;2022-09-01T06:01:29;101568.00;;;16.60
37536;BMP180;23379;51.554;6.736;2022-09-01T06:04:00;101591.00;;;17.50
37536;BMP180;23379;51.554;6.736;2022-09-01T06:06:30;101559.00;;;17.50
37536;BMP180;23379;51.554;6.736;2022-09-01T06:09:00;101574.00;;;17.30
37536;BMP180;23379;51.554;6.736;2022-09-01T06:11:26;101593.00;;;17.20
37536;BMP180;23379;51.554;6.736;2022-09-01T06:13:57;101579.00;;;17.00
37536;BMP180;23379;51.554;6.736;2022-09-01T06:16:23;101587.00;;;16.40
37536;BMP180;23379;51.554;6.736;2022-09-01T06:18:52;101593.00;;;16.50
37536;BMP180;23379;51.554;6.736;2022-09-01T06:21:19;101559.00;;;16.30
37536;BMP180;23379;51.554;6.736;2022-09-01T06:23:46;101558.00;;;16.10
37536;BMP180;23379;51.554;6.736;2022-09-01T06:26:29;101580.00;;;16.20
37536;BMP180;23379;51.554;6.736;2022-09-01T06:28:57;101596.00;;;16.20
37536;BMP180;23379;51.554;6.736;2022-09-01T06:31:23;101592.00;;;16.30
37536;BMP180;23379;51.554;6.736;2022-09-01T06:33:51;101578.00;;;16.40
37536;BMP180;23379;51.554;6.736;2022-09-01T06:36:19;101552.00;;;16.80
37536;BMP180;23379;51.554;6.736;2022-09-01T06:38:45;101566.00;;;16.60
37536;BMP180;23379;51.554;6.736;2022-09-01T06:41:11;101583.00;;;17.00
37536;BMP180;23379;51.554;6.736;2022-09-01T06:43:38;101570.00;;;17.00
37536;BMP180;23379;51.554;6.736;2022-09-01T06:46:06;101598.00;;;16.90
37536;BMP180;23379;51.554;6.736;2022-09-01T06:48:32;101575.00;;;17.20
37536;BMP180;23379;51.554;6.736;2022-09-01T06:51:00;101606.00;;;17.40
37536;BMP180;23379;51.554;6.736;2022-09-01T06:53:28;101587.00;;;17.50
37536;BMP180;23379;51.554;6.736;2022-09-01T06:55:56;101583.00;;;17.80
37536;BMP180;23379;51.554;6.736;2022-09-01T06:58:21;101590.00;;;17.60
37536;BMP180;23379;51.554;6.736;2022-09-01T07:00:47;101575.00;;;17.80
37536;BMP180;23379;51.554;6.736;2022-09-01T07:03:14;101612.00;;;18.10
37536;BMP180;23379;51.554;6.736;2022-09-01T07:05:41;101596.00;;;18.40
37536;BMP180;23379;51.554;6.736;2022-09-01T07:08:09;101614.00;;;18.50
37536;BMP180;23379;51.554;6.736;2022-09-01T07:10:43;101605.00;;;18.80
37536;BMP180;23379;51.554;6.736;2022-09-01T07:13:13;101606.00;;;18.70
37536;BMP180;23379;51.554;6.736;2022-09-01T07:15:43;101588.00;;;18.90
37536;BMP180;23379;51.554;6.736;2022-09-01T07:18:09;101575.00;;;19.10
37536;BMP180;23379;51.554;6.736;2022-09-01T07:20:40;101615.00;;;19.10
37536;BMP180;23379;51.554;6.736;2022-09-01T07:23:06;101605.00;;;19.40
37536;BMP180;23379;51.554;6.736;2022-09-01T07:25:33;101592.00;;;19.30
37536;BMP180;23379;51.554;6.736;2022-09-01T07:28:03;101582.00;;;19.70
37536;BMP180;23379;51.554;6.736;2022-09-01T07:30:28;101570.00;;;20.00
37536;BMP180;23379;51.554;6.736;2022-09-01T07:32:55;101599.00;;;20.30
37536;BMP180;23379;51.554;6.736;2022-09-01T07:35:22;101583.00;;;21.10
37536;BMP180;23379;51.554;6.736;2022-09-01T07:37:48;101606.00;;;22.10
37536;BMP180;23379;51.554;6.736;2022-09-01T07:40:16;101592.00;;;22.80
37536;BMP180;23379;51.554;6.736;2022-09-01T07:42:46;101589.00;;;23.30
37536;BMP180;23379;51.554;6.736;2022-09-01T07:45:12;101590.00;;;24.60
37536;BMP180;23379;51.554;6.736;2022-09-01T07:47:38;101573.00;;;24.90
37536;BMP180;23379;51.554;6.736;2022-09-01T07:50:05;101605.00;;;24.10
37536;BMP180;23379;51.554;6.736;2022-09-01T07:52:34;101606.00;;;25.30
37536;BMP180;23379;51.554;6.736;2022-09-01T07:55:01;101598.00;;;25.40
37536;BMP180;23379;51.554;6.736;2022-09-01T07:57:27;101584.00;;;25.90
37536;BMP180;23379;51.554;6.736;2022-09-01T07:59:52;101589.00;;;26.30
37536;BMP180;23379;51.554;6.736;2022-09-01T08:02:20;101582.00;;;25.90
37536;BMP180;23379;51.554;6.736;2022-09-01T08:04:46;101583.00;;;25.60
37536;BMP180;23379;51.554;6.736;2022-09-01T08:07:12;101616.00;;;26.40
37536;BMP180;23379;51.554;6.736;2022-09-01T08:09:38;101600.00;;;26.20
37536;BMP180;23379;51.554;6.736;2022-09-01T08:12:05;101599.00;;;26.90
37536;BMP180;23379;51.554;6.736;2022-09-01T08:14:31;101589.00;;;27.30
37536;BMP180;23379;51.554;6.736;2022-09-01T08:16:56;101606.00;;;27.10
37536;BMP180;23379;51.554;6.736;2022-09-01T08:19:22;101604.00;;;27.10
37536;BMP180;23379;51.554;6.736;2022-09-01T08:21:47;101630.00;;;26.90
37536;BMP180;23379;51.554;6.736;2022-09-01T08:24:13;101613.00;;;27.20
37536;BMP180;23379;51.554;6.736;2022-09-01T08:26:38;101622.00;;;27.40
37536;BMP180;23379;51.554;6.736;2022-09-01T08:29:04;101623.00;;;27.30
37536;BMP180;23379;51.554;6.736;2022-09-01T08:31:30;101623.00;;;27.40
37536;BMP180;23379;51.554;6.736;2022-09-01T08:33:55;101636.00;;;27.60
37536;BMP180;23379;51.554;6.736;2022-09-01T08:36:21;101635.00;;;28.70
37536;BMP180;23379;51.554;6.736;2022-09-01T08:38:47;101618.00;;;27.30
37536;BMP180;23379;51.554;6.736;2022-09-01T08:44:25;101620.00;;;28.40
37536;BMP180;23379;51.554;6.736;2022-09-01T08:47:03;101623.00;;;28.90
37536;BMP180;23379;51.554;6.736;2022-09-01T08:49:30;101617.00;;;29.00
37536;BMP180;23379;51.554;6.736;2022-09-01T08:52:12;101630.00;;;28.90
37536;BMP180;23379;51.554;6.736;2022-09-01T08:54:50;101608.00;;;28.00
37536;BMP180;23379;51.554;6.736;2022-09-01T08:57:37;101599.00;;;27.40
37536;BMP180;23379;51.554;6.736;2022-09-01T09:00:08;101625.00;;;27.10
37536;BMP180;23379;51.554;6.736;2022-09-01T09:12:04;101621.00;;;29.50
37536;BMP180;23379;51.554;6.736;2022-09-01T09:16:49;101614.00;;;28.50
37536;BMP180;23379;51.554;6.736;2022-09-01T09:19:24;101616.00;;;28.50
37536;BMP180;23379;51.554;6.736;2022-09-01T09:21:52;101619.00;;;28.90
37536;BMP180;23379;51.554;6.736;2022-09-01T09:24:31;101613.00;;;28.60
37536;BMP180;23379;51.554;6.736;2022-09-01T09:27:41;101616.00;;;30.70
37536;BMP180;23379;51.554;6.736;2022-09-01T09:30:25;101612.00;;;30.90
37536;BMP180;23379;51.554;6.736;2022-09-01T09:35:35;101595.00;;;28.70
37536;BMP180;23379;51.554;6.736;2022-09-01T09:41:07;101607.00;;;30.70
37536;BMP180;23379;51.554;6.736;2022-09-01T09:46:44;101590.00;;;29.90
37536;BMP180;23379;51.554;6.736;2022-09-01T09:49:20;101576.00;;;31.40
37536;BMP180;23379;51.554;6.736;2022-09-01T09:51:57;101581.00;;;30.00
37536;BMP180;23379;51.554;6.736;2022-09-01T09:54:57;101591.00;;;30.30
37536;BMP180;23379;51.554;6.736;2022-09-01T09:57:24;101571.00;;;29.80
37536;BMP180;23379;51.554;6.736;2022-09-01T10:04:56;101564.00;;;30.20
37536;BMP180;23379;51.554;6.736;2022-09-01T10:07:35;101588.00;;;31.40
37536;BMP180;23379;51.554;6.736;2022-09-01T10:10:05;101570.00;;;29.80
37536;BMP180;23379;51.554;6.736;2022-09-01T10:12:30;101576.00;;;29.00
37536;BMP180;23379;51.554;6.736;2022-09-01T10:15:05;101572.00;;;29.50
37536;BMP180;23379;51.554;6.736;2022-09-01T10:17:39;101566.00;;;30.80
37536;BMP180;23379;51.554;6.736;2022-09-01T10:20:21;101571.00;;;30.20
37536;BMP180;23379;51.554;6.736;2022-09-01T10:22:48;101546.00;;;28.50
37536;BMP180;23379;51.554;6.736;2022-09-01T10:25:28;101572.00;;;29.40
37536;BMP180;23379;51.554;6.736;2022-09-01T10:28:18;101573.00;;;30.00
37536;BMP180;23379;51.554;6.736;2022-09-01T10:30:50;101558.00;;;29.30
37536;BMP180;23379;51.554;6.736;2022-09-01T10:33:18;101572.00;;;29.10
37536;BMP180;23379;51.554;6.736;2022-09-01T10:35:46;101559.00;;;28.70
37536;BMP180;23379;51.554;6.736;2022-09-01T10:38:18;101559.00;;;30.40
37536;BMP180;23379;51.554;6.736;2022-09-01T10:40:49;101538.00;;;30.50
37536;BMP180;23379;51.554;6.736;2022-09-01T10:43:47;101549.00;;;28.40
37536;BMP180;23379;51.554;6.736;2022-09-01T10:48:50;101562.00;;;30.00
37536;BMP180;23379;51.554;6.736;2022-09-01T10:53:50;101544.00;;;32.40
37536;BMP180;23379;51.554;6.736;2022-09-01T11:04:17;101556.00;;;32.50
37536;BMP180;23379;51.554;6.736;2022-09-01T11:09:39;101550.00;;;32.10
37536;BMP180;23379;51.554;6.736;2022-09-01T11:14:57;101550.00;;;32.40
37536;BMP180;23379;51.554;6.736;2022-09-01T11:17:29;101547.00;;;30.10
37536;BMP180;23379;51.554;6.736;2022-09-01T11:25:46;101538.00;;;33.00
37536;BMP180;23379;51.554;6.736;2022-09-01T11:30:45;101540.00;;;33.20
37536;BMP180;23379;51.554;6.736;2022-09-01T11:35:58;101522.00;;;33.50
37536;BMP180;23379;51.554;6.736;2022-09-01T11:38:24;101526.00;;;33.40
37536;BMP180;23379;51.554;6.736;2022-09-01T11:40:56;101526.00;;;33.10
37536;BMP180;23379;51.554;6.736;2022-09-01T11:43:23;101535.00;;;31.60
37536;BMP180;23379;51.554;6.736;2022-09-01T11:46:15;101516.00;;;31.40
37536;BMP180;23379;51.554;6.736;2022-09-01T11:48:46;101515.00;;;29.80
37536;BMP180;23379;51.554;6.736;2022-09-01T11:51:15;101485.00;;;32.40
37536;BMP180;23379;51.554;6.736;2022-09-01T11:53:42;101482.00;;;32.40
37536;BMP180;23379;51.554;6.736;2022-09-01T11:56:23;101511.00;;;28.70
37536;BMP180;23379;51.554;6.736;2022-09-01T11:58:49;101514.00;;;30.70
37536;BMP180;23379;51.554;6.736;2022-09-01T12:03:43;101521.00;;;33.90
37536;BMP180;23379;51.554;6.736;2022-09-01T12:06:11;101520.00;;;32.00
37536;BMP180;23379;51.554;6.736;2022-09-01T12:08:40;101506.00;;;34.30
37536;BMP180;23379;51.554;6.736;2022-09-01T12:13:32;101512.00;;;31.40
37536;BMP180;23379;51.554;6.736;2022-09-01T12:16:06;101505.00;;;29.90
37536;BMP180;23379;51.554;6.736;2022-09-01T12:18:43;101503.00;;;30.70
37536;BMP180;23379;51.554;6.736;2022-09-01T12:21:25;101503.00;;;31.60
37536;BMP180;23379;51.554;6.736;2022-09-01T12:23:52;101511.00;;;30.60
37536;BMP180;23379;51.554;6.736;2022-09-01T12:26:25;101506.00;;;29.00
37536;BMP180;23379;51.554;6.736;2022-09-01T12:28:51;101450.00;;;31.00
37536;BMP180;23379;51.554;6.736;2022-09-01T12:31:29;101463.00;;;29.30
37536;BMP180;23379;51.554;6.736;2022-09-01T12:33:55;101500.00;;;29.10
37536;BMP180;23379;51.554;6.736;2022-09-01T12:36:26;101481.00;;;30.10
37536;BMP180;23379;51.554;6.736;2022-09-01T12:38:56;101495.00;;;31.60
37536;BMP180;23379;51.554;6.736;2022-09-01T12:41:37;101482.00;;;31.30
37536;BMP180;23379;51.554;6.736;2022-09-01T12:44:32;101492.00;;;30.50
37536;BMP180;23379;51.554;6.736;2022-09-01T12:47:07;101448.00;;;29.90
37536;BMP180;23379;51.554;6.736;2022-09-01T12:49:44;101487.00;;;31.60
37536;BMP180;23379;51.554;6.736;2022-09-01T12:52:20;101475.00;;;32.30
37536;BMP180;23379;51.554;6.736;2022-09-01T12:57:38;101478.00;;;30.20
37536;BMP180;23379;51.554;6.736;2022-09-01T13:05:23;101471.00;;;34.00
37536;BMP180;23379;51.554;6.736;2022-09-01T13:07:55;101462.00;;;32.20
37536;BMP180;23379;51.554;6.736;2022-09-01T13:10:26;101474.00;;;34.00
37536;BMP180;23379;51.554;6.736;2022-09-01T13:12:55;101461.00;;;32.40
37536;BMP180;23379;51.554;6.736;2022-09-01T13:15:22;101466.00;;;31.10
37536;BMP180;23379;51.554;6.736;2022-09-01T13:17:50;101449.00;;;30.90
37536;BMP180;23379;51.554;6.736;2022-09-01T13:20:16;101428.00;;;32.30
37536;BMP180;23379;51.554;6.736;2022-09-01T13:22:42;101430.00;;;31.10
37536;BMP180;23379;51.554;6.736;2022-09-01T13:25:10;101406.00;;;29.40
37536;BMP180;23379;51.554;6.736;2022-09-01T13:27:36;101438.00;;;28.90
37536;BMP180;23379;51.554;6.736;2022-09-01T13:30:03;101413.00;;;29.40
37536;BMP180;23379;51.554;6.736;2022-09-01T13:32:30;101406.00;;;29.30
37536;BMP180;23379;51.554;6.736;2022-09-01T13:34:56;101432.00;;;29.40
37536;BMP180;23379;51.554;6.736;2022-09-01T13:37:22;101427.00;;;30.20
37536;BMP180;23379;51.554;6.736;2022-09-01T13:39:48;101400.00;;;30.40
37536;BMP180;23379;51.554;6.736;2022-09-01T13:42:13;101417.00;;;31.10
37536;BMP180;23379;51.554;6.736;2022-09-01T13:44:39;101407.00;;;30.60
37536;BMP180;23379;51.554;6.736;2022-09-01T13:47:04;101383.00;;;29.70
37536;BMP180;23379;51.554;6.736;2022-09-01T13:49:30;101408.00;;;29.90
37536;BMP180;23379;51.554;6.736;2022-09-01T13:51:55;101419.00;;;28.10
37536;BMP180;23379;51.554;6.736;2022-09-01T13:54:21;101388.00;;;27.60
37536;BMP180;23379;51.554;6.736;2022-09-01T13:56:46;101425.00;;;28.30
37536;BMP180;23379;51.554;6.736;2022-09-01T13:59:12;101381.00;;;29.00
37536;BMP180;23379;51.554;6.736;2022-09-01T14:01:37;101373.00;;;29.30
37536;BMP180;23379;51.554;6.736;2022-09-01T14:04:05;101413.00;;;30.20
37536;BMP180;23379;51.554;6.736;2022-09-01T14:06:31;101411.00;;;30.70
37536;BMP180;23379;51.554;6.736;2022-09-01T14:08:56;101376.00;;;30.30
37536;BMP180;23379;51.554;6.736;2022-09-01T14:11:24;101387.00;;;29.80
37536;BMP180;23379;51.554;6.736;2022-09-01T14:13:51;101364.00;;;29.30
37536;BMP180;23379;51.554;6.736;2022-09-01T14:16:16;101394.00;;;29.70
37536;BMP180;23379;51.554;6.736;2022-09-01T14:18:42;101394.00;;;28.70
37536;BMP180;23379;51.554;6.736;2022-09-01T14:21:13;101392.00;;;28.60
37536;BMP180;23379;51.554;6.736;2022-09-01T14:23:39;101386.00;;;28.50
37536;BMP180;23379;51.554;6.736;2022-09-01T14:26:09;101381.00;;;28.50
37536;BMP180;23379;51.554;6.736;2022-09-01T14:28:36;101392.00;;;28.30
37536;BMP180;23379;51.554;6.736;2022-09-01T14:31:07;101401.00;;;27.50
37536;BMP180;23379;51.554;6.736;2022-09-01T14:33:37;101371.00;;;26.80
37536;BMP180;23379;51.554;6.736;2022-09-01T14:36:07;101330.00;;;26.40
37536;BMP180;23379;51.554;6.736;2022-09-01T14:38:33;101368.00;;;26.40
37536;BMP180;23379;51.554;6.736;2022-09-01T14:41:00;101365.00;;;26.60
37536;BMP180;23379;51.554;6.736;2022-09-01T14:43:27;101364.00;;;26.80
37536;BMP180;23379;51.554;6.736;2022-09-01T14:46:03;101377.00;;;26.70
37536;BMP180;23379;51.554;6.736;2022-09-01T14:48:32;101377.00;;;26.70
37536;BMP180;23379;51.554;6.736;2022-09-01T14:50:58;101363.00;;;26.60
37536;BMP180;23379;51.554;6.736;2022-09-01T14:53:24;101368.00;;;26.00
37536;BMP180;23379;51.554;6.736;2022-09-01T14:55:49;101359.00;;;26.10
37536;BMP180;23379;51.554;6.736;2022-09-01T14:58:14;101344.00;;;26.40
37536;BMP180;23379;51.554;6.736;2022-09-01T15:00:41;101373.00;;;26.20
37536;BMP180;23379;51.554;6.736;2022-09-01T15:03:07;101336.00;;;26.20
37536;BMP180;23379;51.554;6.736;2022-09-01T15:05:34;101355.00;;;25.90
37536;BMP180;23379;51.554;6.736;2022-09-01T15:08:00;101342.00;;;25.70
37536;BMP180;23379;51.554;6.736;2022-09-01T15:10:25;101348.00;;;25.50
37536;BMP180;23379;51.554;6.736;2022-09-01T15:12:56;101355.00;;;26.00
37536;BMP180;23379;51.554;6.736;2022-09-01T15:15:22;101328.00;;;26.00
37536;BMP180;23379;51.554;6.736;2022-09-01T15:17:48;101352.00;;;26.10
37536;BMP180;23379;51.554;6.736;2022-09-01T15:20:14;101333.00;;;25.80